Time;durP1;ratioP1;P1;durP2;ratioP2;P2;SDS_P1;SDS_P2;PMS_P1;PMS_P2;Temp;Humidity;BMP_temperature;BMP_pressure;BME280_temperature;BME280_humidity;BME280_pressure;Samples;Min_cycle;Max_cycle;Signal;HPM_P1;HPM_P2
2023/10/18 00:03:41;;;;;;;16.85;10.52;;;;;;;;;;12637232;23;20655;-66
2023/10/18 00:08:38;;;;;;;12.63;10.90;;;;;;;;;;12636065;23;20100;-67
2023/10/18 00:13:35;;;;;;;14.88;10.50;;;;;;;;;;12636572;23;20028;-66
2023/10/18 00:18:32;;;;;;;12.80;10.25;;;;;;;;;;12630815;23;20055;-66
2023/10/18 00:23:31;;;;;;;13.60;10.93;;;;;;;;;;12637117;23;20024;-67
2023/10/18 00:28:28;;;;;;;12.77;10.27;;;;;;;;;;12637173;23;20028;-66
2023/10/18 00:33:24;;;;;;;13.88;10.07;;;;;;;;;;12636697;23;20024;-66
2023/10/18 00:38:24;;;;;;;10.80;9.68;;;;;;;;;;12638231;23;20025;-66
2023/10/18 00:43:20;;;;;;;18.35;9.75;;;;;;;;;;12636299;23;20025;-66
2023/10/18 00:48:23;;;;;;;14.43;9.80;;;;;;;;;;12634237;23;20474;-67
2023/10/18 00:53:25;;;;;;;;;;;;;;;;;;12636555;23;20028;-67
2023/10/18 00:58:22;;;;;;;11.63;9.30;;;;;;;;;;12636829;23;20364;-66
2023/10/18 01:03:28;;;;;;;15.45;9.90;;;;;;;;;;12636044;23;20455;-67
2023/10/18 01:08:26;;;;;;;11.85;9.63;;;;;;;;;;12633454;23;20044;-67
2023/10/18 01:13:23;;;;;;;11.95;10.43;;;;;;;;;;12634502;23;20027;-67
2023/10/18 01:18:19;;;;;;;11.63;9.93;;;;;;;;;;12628982;23;20074;-67
2023/10/18 01:23:16;;;;;;;10.85;9.10;;;;;;;;;;12634529;23;20332;-67
2023/10/18 01:28:13;;;;;;;10.82;9.73;;;;;;;;;;12633265;23;20056;-66
2023/10/18 01:33:10;;;;;;;12.15;10.30;;;;;;;;;;12635054;23;20024;-67
2023/10/18 01:38:13;;;;;;;13.60;9.35;;;;;;;;;;12636423;23;20033;-66
2023/10/18 01:43:11;;;;;;;10.77;9.10;;;;;;;;;;12635174;23;20026;-66
2023/10/18 01:48:09;;;;;;;15.88;9.88;;;;;;;;;;12633163;23;20028;-66
2023/10/18 01:53:15;;;;;;;10.50;9.40;;;;;;;;;;12635349;23;20552;-66
2023/10/18 01:58:13;;;;;;;10.68;9.52;;;;;;;;;;12635811;23;20039;-66
2023/10/18 02:03:11;;;;;;;11.48;9.77;;;;;;;;;;12635283;23;20422;-66
2023/10/18 02:08:08;;;;;;;9.75;8.75;;;;;;;;;;12635192;23;20032;-66
2023/10/18 02:13:05;;;;;;;14.00;9.48;;;;;;;;;;12634935;23;20083;-67
2023/10/18 02:18:02;;;;;;;10.02;8.95;;;;;;;;;;12634664;23;20055;-68
2023/10/18 02:23:01;;;;;;;11.00;9.43;;;;;;;;;;12634587;23;20021;-67
2023/10/18 02:27:59;;;;;;;9.90;8.80;;;;;;;;;;12635077;23;20374;-68
2023/10/18 02:32:59;;;;;;;8.73;7.78;;;;;;;;;;12634157;23;20499;-69
2023/10/18 02:37:56;;;;;;;13.05;8.45;;;;;;;;;;12635178;23;20029;-68
2023/10/18 02:42:55;;;;;;;10.13;8.23;;;;;;;;;;12632153;23;20078;-68
2023/10/18 02:47:51;;;;;;;10.45;8.50;;;;;;;;;;12628931;23;20479;-68
2023/10/18 02:52:48;;;;;;;10.35;8.43;;;;;;;;;;12634002;23;20028;-69
2023/10/18 02:57:48;;;;;;;9.77;8.77;;;;;;;;;;12635237;23;20028;-69
2023/10/18 03:02:48;;;;;;;9.10;8.20;;;;;;;;;;12630224;23;20025;-69
2023/10/18 03:07:45;;;;;;;14.75;9.93;;;;;;;;;;12628619;23;20377;-67
2023/10/18 03:12:44;;;;;;;9.70;8.70;;;;;;;;;;12634242;23;20478;-66
2023/10/18 03:17:41;;;;;;;11.00;9.57;;;;;;;;;;12632361;23;20029;-68
2023/10/18 03:22:43;;;;;;;10.45;8.95;;;;;;;;;;12633494;23;20029;-68
2023/10/18 03:27:49;;;;;;;9.82;8.50;;;;;;;;;;12632770;23;20032;-68
2023/10/18 03:32:51;;;;;;;12.35;10.18;;;;;;;;;;12633802;23;20031;-69
2023/10/18 03:37:48;;;;;;;11.27;9.65;;;;;;;;;;12635664;23;20466;-68
2023/10/18 03:42:50;;;;;;;10.93;9.23;;;;;;;;;;12636754;23;20354;-69
2023/10/18 03:47:57;;;;;;;9.90;9.00;;;;;;;;;;12629135;23;20024;-69
2023/10/18 03:52:54;;;;;;;11.00;9.27;;;;;;;;;;12636428;23;20488;-70
2023/10/18 03:57:54;;;;;;;9.30;8.43;;;;;;;;;;12637339;23;20024;-70
2023/10/18 04:02:56;;;;;;;10.05;9.05;;;;;;;;;;12635488;23;20027;-69
2023/10/18 04:07:53;;;;;;;;;;;;;;;;;;12628622;23;20051;-71
2023/10/18 04:12:50;;;;;;;11.52;9.88;;;;;;;;;;12635190;23;20449;-69
2023/10/18 04:17:49;;;;;;;10.73;9.65;;;;;;;;;;12634087;23;20048;-70
2023/10/18 04:22:46;;;;;;;10.85;9.80;;;;;;;;;;12631760;23;20028;-69
2023/10/18 04:27:44;;;;;;;11.00;9.80;;;;;;;;;;12635261;23;20028;-71
2023/10/18 04:32:42;;;;;;;10.32;9.35;;;;;;;;;;12635589;23;20024;-70
2023/10/18 04:37:38;;;;;;;11.02;9.93;;;;;;;;;;12637193;23;20083;-70
2023/10/18 04:42:37;;;;;;;11.02;9.73;;;;;;;;;;12632541;23;20032;-70
2023/10/18 04:47:34;;;;;;;13.40;9.18;;;;;;;;;;12629240;23;20470;-71
2023/10/18 04:52:40;;;;;;;11.70;9.90;;;;;;;;;;12630419;23;20079;-70
2023/10/18 04:57:38;;;;;;;11.00;9.77;;;;;;;;;;12634159;23;20024;-70
2023/10/18 05:02:38;;;;;;;10.77;9.70;;;;;;;;;;12634817;23;20380;-70
2023/10/18 05:07:42;;;;;;;10.65;9.70;;;;;;;;;;12636361;23;20474;-71
2023/10/18 05:12:46;;;;;;;14.55;10.23;;;;;;;;;;12630053;23;20426;-71
2023/10/18 05:17:43;;;;;;;11.52;10.43;;;;;;;;;;12634990;23;20647;-70
2023/10/18 05:22:41;;;;;;;11.65;10.45;;;;;;;;;;12636034;23;20025;-70
2023/10/18 05:27:47;;;;;;;11.98;9.93;;;;;;;;;;12634149;23;20425;-71
2023/10/18 05:32:54;;;;;;;13.02;10.25;;;;;;;;;;12633189;23;20024;-70
2023/10/18 05:37:50;;;;;;;10.38;9.48;;;;;;;;;;12635648;23;20079;-70
2023/10/18 05:42:48;;;;;;;10.25;9.25;;;;;;;;;;12634778;23;20470;-71
2023/10/18 05:47:44;;;;;;;11.93;9.50;;;;;;;;;;12634837;23;20099;-72
2023/10/18 05:52:48;;;;;;;10.38;9.27;;;;;;;;;;12635662;23;20051;-71
2023/10/18 05:57:45;;;;;;;12.43;9.65;;;;;;;;;;12634977;23;20344;-72
2023/10/18 06:02:42;;;;;;;9.82;8.85;;;;;;;;;;12633855;23;20028;-70
2023/10/18 06:07:39;;;;;;;10.85;9.90;;;;;;;;;;12635482;23;20537;-70
2023/10/18 06:12:40;;;;;;;10.77;9.00;;;;;;;;;;12629301;23;20029;-69
2023/10/18 06:22:47;;;;;;;9.90;8.90;;;;;;;;;;12634454;23;20084;-72
2023/10/18 06:27:46;;;;;;;9.90;9.00;;;;;;;;;;12634921;23;20024;-69
2023/10/18 06:32:43;;;;;;;14.45;9.40;;;;;;;;;;12634107;23;20032;-70
2023/10/18 06:37:41;;;;;;;9.98;8.85;;;;;;;;;;12633294;23;20099;-73
2023/10/18 06:42:38;;;;;;;11.95;10.00;;;;;;;;;;12634190;23;20048;-70
2023/10/18 06:47:44;;;;;;;10.50;9.50;;;;;;;;;;12634369;23;20032;-69
2023/10/18 06:52:44;;;;;;;11.38;10.25;;;;;;;;;;12634188;23;20362;-70
2023/10/18 06:57:42;;;;;;;12.40;11.20;;;;;;;;;;12633963;23;20374;-70
2023/10/18 07:02:38;;;;;;;11.07;10.07;;;;;;;;;;12634910;23;20025;-72
2023/10/18 07:07:37;;;;;;;10.52;9.70;;;;;;;;;;12634683;23;20025;-73
2023/10/18 07:12:44;;;;;;;11.20;10.07;;;;;;;;;;12628937;23;20048;-70
2023/10/18 07:17:40;;;;;;;9.57;8.80;;;;;;;;;;12639364;23;20025;-70
2023/10/18 07:22:44;;;;;;;11.00;10.05;;;;;;;;;;12636674;23;20028;-71
2023/10/18 07:27:41;;;;;;;10.55;9.55;;;;;;;;;;12638549;23;20103;-71
2023/10/18 07:32:37;;;;;;;11.60;10.50;;;;;;;;;;12637776;23;20025;-71
2023/10/18 07:37:41;;;;;;;11.48;10.48;;;;;;;;;;12637608;23;20441;-71
2023/10/18 07:42:42;;;;;;;12.07;10.82;;;;;;;;;;12637790;23;20020;-71
2023/10/18 07:47:38;;;;;;;11.80;10.63;;;;;;;;;;12635764;23;20540;-71
2023/10/18 07:52:35;;;;;;;15.68;10.93;;;;;;;;;;12637166;23;20028;-71
2023/10/18 07:57:34;;;;;;;13.13;11.82;;;;;;;;;;12636960;23;20024;-71
2023/10/18 08:02:31;;;;;;;12.18;10.98;;;;;;;;;;12636611;23;20091;-71
2023/10/18 08:07:29;;;;;;;13.55;11.15;;;;;;;;;;12632648;23;20119;-71
2023/10/18 08:12:33;;;;;;;;;;;;;;;;;;12630454;23;20029;-71
2023/10/18 08:17:40;;;;;;;14.95;11.48;;;;;;;;;;12636516;23;19923;-70
2023/10/18 08:22:39;;;;;;;14.95;12.15;;;;;;;;;;12635954;23;20051;-71
2023/10/18 08:27:41;;;;;;;13.55;12.25;;;;;;;;;;12636346;23;20021;-70
2023/10/18 08:32:37;;;;;;;12.45;10.90;;;;;;;;;;12637144;23;20031;-71
2023/10/18 08:37:36;;;;;;;12.57;11.48;;;;;;;;;;12636553;23;20086;-71
2023/10/18 08:42:33;;;;;;;14.80;11.77;;;;;;;;;;12635942;23;20028;-70
2023/10/18 08:47:30;;;;;;;11.98;10.88;;;;;;;;;;12636656;23;20501;-71
2023/10/18 08:52:31;;;;;;;14.23;11.63;;;;;;;;;;12636033;23;20029;-70
2023/10/18 08:57:36;;;;;;;12.70;11.50;;;;;;;;;;12636182;23;20056;-70
2023/10/18 09:02:39;;;;;;;10.40;9.38;;;;;;;;;;12636136;23;20036;-71
2023/10/18 09:07:44;;;;;;;9.88;8.88;;;;;;;;;;12635245;23;20032;-71
2023/10/18 09:17:40;;;;;;;8.82;7.90;;;;;;;;;;12635725;23;20043;-71
2023/10/18 09:22:38;;;;;;;8.85;8.05;;;;;;;;;;12635351;23;20498;-71
2023/10/18 09:27:35;;;;;;;8.70;7.55;;;;;;;;;;12636180;23;20087;-71
2023/10/18 09:32:34;;;;;;;8.27;7.47;;;;;;;;;;12635059;23;20078;-70
2023/10/18 09:37:35;;;;;;;8.43;7.50;;;;;;;;;;12634219;23;20358;-71
2023/10/18 09:42:32;;;;;;;6.90;6.30;;;;;;;;;;12635946;23;20083;-71
2023/10/18 09:47:28;;;;;;;7.30;6.53;;;;;;;;;;12635258;23;20658;-71
2023/10/18 09:52:30;;;;;;;6.68;6.00;;;;;;;;;;12635100;23;20538;-71
2023/10/18 09:57:33;;;;;;;10.15;5.88;;;;;;;;;;12635729;23;20051;-71
2023/10/18 10:02:30;;;;;;;6.75;5.78;;;;;;;;;;12635250;23;20024;-71
2023/10/18 10:07:27;;;;;;;6.28;5.32;;;;;;;;;;12634688;23;20532;-71
2023/10/18 10:12:27;;;;;;;6.50;5.90;;;;;;;;;;12629102;23;20335;-72
2023/10/18 10:17:28;;;;;;;6.03;5.07;;;;;;;;;;12635121;23;20082;-71
2023/10/18 10:22:25;;;;;;;6.10;5.50;;;;;;;;;;12633199;23;20024;-71
2023/10/18 10:32:29;;;;;;;5.57;4.80;;;;;;;;;;12634864;23;20036;-71
2023/10/18 10:37:28;;;;;;;5.68;4.65;;;;;;;;;;12635411;23;20030;-70
2023/10/18 10:42:41;;;;;;;5.55;4.68;;;;;;;;;;12634306;23;20032;-70
2023/10/18 10:47:44;;;;;;;7.22;5.00;;;;;;;;;;12636421;23;20419;-71
2023/10/18 10:52:41;;;;;;;5.75;5.25;;;;;;;;;;12639164;23;20021;-71
2023/10/18 10:57:43;;;;;;;6.95;5.18;;;;;;;;;;12639271;23;20036;-71
2023/10/18 11:02:40;;;;;;;7.00;5.13;;;;;;;;;;12638593;23;20040;-71
2023/10/18 11:07:36;;;;;;;5.18;4.57;;;;;;;;;;12637957;23;20382;-72
2023/10/18 11:12:34;;;;;;;6.32;5.15;;;;;;;;;;12638405;23;20378;-70
2023/10/18 11:17:34;;;;;;;6.70;5.25;;;;;;;;;;12631977;23;20478;-71
2023/10/18 11:22:31;;;;;;;6.75;5.45;;;;;;;;;;12636064;23;20024;-71
2023/10/18 11:27:34;;;;;;;6.43;4.63;;;;;;;;;;12637770;23;20482;-72
2023/10/18 11:32:31;;;;;;;6.50;5.32;;;;;;;;;;12638073;23;20028;-71
2023/10/18 11:37:34;;;;;;;7.18;4.97;;;;;;;;;;12638455;23;20366;-70
2023/10/18 11:42:51;;;;;;;5.68;5.10;;;;;;;;;;12637749;23;20386;-71
2023/10/18 11:47:48;;;;;;;5.00;4.50;;;;;;;;;;12636642;23;20051;-71
2023/10/18 11:52:48;;;;;;;6.88;5.45;;;;;;;;;;12637898;23;20103;-71
2023/10/18 11:57:47;;;;;;;8.80;5.50;;;;;;;;;;12636585;23;20025;-71
2023/10/18 12:02:44;;;;;;;7.07;5.57;;;;;;;;;;12636769;23;20088;-71
2023/10/18 12:07:44;;;;;;;8.15;5.22;;;;;;;;;;12637545;23;20056;-71
2023/10/18 12:12:41;;;;;;;5.70;5.10;;;;;;;;;;12636914;23;20104;-71
2023/10/18 12:17:37;;;;;;;5.85;5.28;;;;;;;;;;12631631;23;20029;-71
2023/10/18 12:22:36;;;;;;;7.47;5.50;;;;;;;;;;12637309;23;20028;-71
2023/10/18 12:27:35;;;;;;;6.88;5.30;;;;;;;;;;12637209;23;20104;-72
2023/10/18 12:32:41;;;;;;;6.35;5.75;;;;;;;;;;12636562;23;20516;-71
2023/10/18 12:37:40;;;;;;;5.88;5.35;;;;;;;;;;12638241;23;20358;-71
2023/10/18 12:42:37;;;;;;;6.38;5.40;;;;;;;;;;12636064;23;20024;-71
2023/10/18 12:47:37;;;;;;;7.63;5.22;;;;;;;;;;12635979;23;20028;-72
2023/10/18 12:57:35;;;;;;;7.45;5.47;;;;;;;;;;12636886;23;20028;-72
2023/10/18 13:07:54;;;;;;;7.05;5.28;;;;;;;;;;12593930;23;20027;-71
2023/10/18 13:12:56;;;;;;;5.82;5.32;;;;;;;;;;12634677;23;20770;-71
2023/10/18 13:17:52;;;;;;;;;;;;;;;;;;12629329;23;20419;-72
2023/10/18 13:22:50;;;;;;;6.78;5.85;;;;;;;;;;12636243;23;19998;-72
2023/10/18 13:27:48;;;;;;;6.65;6.05;;;;;;;;;;12635867;23;20480;-71
2023/10/18 13:32:44;;;;;;;6.80;6.10;;;;;;;;;;12635371;23;20335;-71
2023/10/18 13:37:43;;;;;;;5.40;4.90;;;;;;;;;;12635213;23;20149;-71
2023/10/18 13:42:40;;;;;;;8.13;5.35;;;;;;;;;;12635459;23;20414;-71
2023/10/18 13:47:37;;;;;;;6.28;5.32;;;;;;;;;;12635568;23;20020;-71
2023/10/18 13:52:33;;;;;;;5.75;5.25;;;;;;;;;;12632665;23;20024;-71
2023/10/18 13:57:30;;;;;;;6.85;5.05;;;;;;;;;;12635390;23;20032;-72
2023/10/18 14:02:27;;;;;;;5.35;4.93;;;;;;;;;;12633860;23;20033;-71
2023/10/18 14:07:24;;;;;;;5.80;5.13;;;;;;;;;;12634752;23;20020;-71
2023/10/18 14:12:24;;;;;;;5.80;5.30;;;;;;;;;;12634170;23;20025;-71
2023/10/18 14:17:20;;;;;;;5.50;5.00;;;;;;;;;;12628612;23;20025;-71
2023/10/18 14:22:17;;;;;;;6.60;5.63;;;;;;;;;;12634979;23;20028;-71
2023/10/18 14:27:14;;;;;;;6.43;5.22;;;;;;;;;;12634769;23;20020;-71
2023/10/18 14:32:10;;;;;;;7.03;6.32;;;;;;;;;;12634696;23;20027;-70
2023/10/18 14:37:06;;;;;;;6.20;5.60;;;;;;;;;;12636306;23;20043;-71
2023/10/18 14:42:03;;;;;;;6.95;5.80;;;;;;;;;;12634056;23;20489;-70
2023/10/18 14:46:59;;;;;;;6.72;5.70;;;;;;;;;;12637387;23;20520;-72
2023/10/18 14:51:56;;;;;;;6.88;6.20;;;;;;;;;;12633306;23;20035;-71
2023/10/18 14:56:52;;;;;;;7.57;5.85;;;;;;;;;;12634133;23;20033;-71
2023/10/18 15:01:49;;;;;;;7.00;5.78;;;;;;;;;;12634325;23;20028;-71
2023/10/18 15:06:45;;;;;;;6.45;5.85;;;;;;;;;;12632115;23;20028;-71
2023/10/18 15:11:41;;;;;;;6.32;5.72;;;;;;;;;;12631598;23;20024;-71
2023/10/18 15:16:38;;;;;;;8.75;6.25;;;;;;;;;;12621725;23;20636;-71
2023/10/18 15:21:34;;;;;;;7.25;6.57;;;;;;;;;;12627872;23;20028;-69
2023/10/18 15:26:37;;;;;;;6.55;5.95;;;;;;;;;;12633509;23;20104;-70
2023/10/18 15:31:35;;;;;;;6.97;6.38;;;;;;;;;;12634496;23;20394;-71
2023/10/18 15:36:31;;;;;;;7.22;6.15;;;;;;;;;;12637266;23;20024;-70
2023/10/18 15:41:27;;;;;;;6.55;5.78;;;;;;;;;;12632664;23;20458;-71
2023/10/18 15:46:25;;;;;;;6.95;5.97;;;;;;;;;;12636798;23;20039;-71
2023/10/18 15:51:22;;;;;;;8.02;6.38;;;;;;;;;;12636239;23;20024;-71
2023/10/18 15:56:18;;;;;;;6.43;5.78;;;;;;;;;;12634609;23;20028;-72
2023/10/18 16:01:18;;;;;;;7.22;5.97;;;;;;;;;;12634954;23;20024;-71
2023/10/18 16:06:15;;;;;;;9.38;6.45;;;;;;;;;;12631983;23;20399;-71
2023/10/18 16:11:12;;;;;;;7.20;6.15;;;;;;;;;;12635823;23;20017;-71
2023/10/18 16:16:09;;;;;;;7.72;6.90;;;;;;;;;;12633950;23;20473;-72
2023/10/18 16:21:07;;;;;;;8.63;6.47;;;;;;;;;;12622554;23;20025;-72
2023/10/18 16:26:03;;;;;;;7.65;6.38;;;;;;;;;;12636329;23;20024;-73
2023/10/18 16:31:02;;;;;;;9.90;6.13;;;;;;;;;;12632501;23;20055;-72
2023/10/18 16:35:59;;;;;;;7.22;6.63;;;;;;;;;;12634910;23;20020;-72
2023/10/18 16:41:02;;;;;;;8.40;6.13;;;;;;;;;;12633188;23;20040;-72
2023/10/18 16:46:01;;;;;;;7.28;6.57;;;;;;;;;;12635910;23;20079;-73
2023/10/18 16:50:58;;;;;;;7.68;6.97;;;;;;;;;;12634012;23;20021;-72
2023/10/18 16:55:58;;;;;;;7.82;6.95;;;;;;;;;;12634675;23;20027;-72
2023/10/18 17:00:55;;;;;;;7.28;6.57;;;;;;;;;;12624691;23;20025;-72
2023/10/18 17:05:55;;;;;;;7.22;6.63;;;;;;;;;;12631185;23;20017;-72
2023/10/18 17:10:55;;;;;;;9.95;6.63;;;;;;;;;;12633717;23;20387;-72
2023/10/18 17:15:52;;;;;;;7.22;6.50;;;;;;;;;;12632366;23;20046;-72
2023/10/18 17:20:49;;;;;;;7.70;6.60;;;;;;;;;;12623764;23;20024;-73
2023/10/18 17:26:02;;;;;;;8.27;6.90;;;;;;;;;;12621826;23;20512;-72
2023/10/18 17:30:59;;;;;;;7.70;6.60;;;;;;;;;;12632715;23;20711;-71
2023/10/18 17:35:56;;;;;;;8.65;7.38;;;;;;;;;;12633531;23;20100;-73
2023/10/18 17:40:53;;;;;;;7.80;7.20;;;;;;;;;;12626804;23;20362;-72
2023/10/18 17:45:49;;;;;;;8.18;6.72;;;;;;;;;;12634028;23;20021;-71
2023/10/18 17:50:46;;;;;;;9.27;6.93;;;;;;;;;;12632551;23;20024;-72
2023/10/18 17:55:43;;;;;;;10.32;6.35;;;;;;;;;;12635219;23;20075;-72
2023/10/18 18:00:41;;;;;;;7.50;6.80;;;;;;;;;;12634249;23;20017;-71
2023/10/18 18:05:43;;;;;;;7.03;6.40;;;;;;;;;;12633572;23;20713;-72
2023/10/18 18:10:39;;;;;;;;;;;;;;;;;;12633215;23;20075;-72
2023/10/18 18:15:36;;;;;;;8.18;7.00;;;;;;;;;;12631862;23;19915;-72
2023/10/18 18:20:33;;;;;;;7.30;6.60;;;;;;;;;;12631932;23;20031;-72
2023/10/18 18:25:29;;;;;;;7.18;6.47;;;;;;;;;;12633118;23;20024;-71
2023/10/18 18:30:26;;;;;;;7.18;6.35;;;;;;;;;;12628652;23;20083;-72
2023/10/18 18:35:22;;;;;;;7.80;6.68;;;;;;;;;;12634576;23;20063;-71
2023/10/18 18:40:20;;;;;;;7.50;6.80;;;;;;;;;;12627251;23;20020;-72
2023/10/18 18:45:18;;;;;;;7.35;6.65;;;;;;;;;;12634730;23;20071;-72
2023/10/18 18:50:15;;;;;;;7.20;6.50;;;;;;;;;;12627829;23;20031;-72
2023/10/18 18:55:14;;;;;;;7.00;6.40;;;;;;;;;;12634809;23;20028;-73
2023/10/18 19:00:15;;;;;;;7.65;6.75;;;;;;;;;;12630335;23;20055;-72
2023/10/18 19:05:12;;;;;;;7.50;6.50;;;;;;;;;;12634087;23;20354;-73
2023/10/18 19:10:10;;;;;;;7.72;6.25;;;;;;;;;;12637567;23;20016;-72
2023/10/18 19:15:07;;;;;;;6.70;6.05;;;;;;;;;;12638486;23;20052;-73
2023/10/18 19:20:03;;;;;;;7.20;6.50;;;;;;;;;;12639678;23;20026;-72
2023/10/18 19:25:00;;;;;;;6.57;5.97;;;;;;;;;;12639014;23;20031;-73
2023/10/18 19:29:57;;;;;;;7.47;6.63;;;;;;;;;;12634126;23;20028;-72
2023/10/18 19:34:53;;;;;;;7.15;6.43;;;;;;;;;;12636090;23;20031;-73
2023/10/18 19:39:49;;;;;;;7.05;6.20;;;;;;;;;;12637421;23;20028;-72
2023/10/18 19:44:47;;;;;;;6.93;6.28;;;;;;;;;;12635956;23;20024;-72
2023/10/18 19:49:45;;;;;;;7.43;6.55;;;;;;;;;;12634796;23;20055;-72
2023/10/18 19:54:41;;;;;;;7.25;6.57;;;;;;;;;;12630287;23;20028;-73
2023/10/18 19:59:37;;;;;;;6.35;5.75;;;;;;;;;;12633694;23;20032;-73
2023/10/18 20:04:34;;;;;;;7.88;6.15;;;;;;;;;;12637094;23;20052;-72
2023/10/18 20:09:34;;;;;;;7.40;6.13;;;;;;;;;;12633903;23;20024;-73
2023/10/18 20:14:30;;;;;;;7.18;6.47;;;;;;;;;;12636584;23;20024;-71
2023/10/18 20:19:27;;;;;;;9.18;6.13;;;;;;;;;;12630465;23;20032;-72
2023/10/18 20:24:24;;;;;;;7.60;6.65;;;;;;;;;;12633121;23;20032;-65
2023/10/18 20:29:20;;;;;;;7.22;6.43;;;;;;;;;;12626947;23;20027;-68
2023/10/18 20:34:17;;;;;;;7.30;6.47;;;;;;;;;;12631927;23;20025;-67
2023/10/18 20:39:17;;;;;;;8.60;6.82;;;;;;;;;;12629252;23;20351;-68
2023/10/18 20:44:17;;;;;;;9.02;6.75;;;;;;;;;;12634240;23;20032;-68
2023/10/18 20:49:17;;;;;;;9.77;7.78;;;;;;;;;;12634183;23;20031;-67
2023/10/18 20:54:19;;;;;;;10.40;8.13;;;;;;;;;;12631000;23;20031;-67
2023/10/18 20:59:16;;;;;;;8.02;7.22;;;;;;;;;;12635499;23;20024;-67
2023/10/18 21:04:16;;;;;;;8.55;7.45;;;;;;;;;;12636238;23;20103;-67
2023/10/18 21:09:13;;;;;;;8.70;7.15;;;;;;;;;;12635246;23;20025;-67
2023/10/18 21:14:10;;;;;;;9.27;7.20;;;;;;;;;;12635004;23;20025;-67
2023/10/18 21:19:07;;;;;;;8.68;7.78;;;;;;;;;;12635945;23;20470;-67
2023/10/18 21:24:04;;;;;;;9.75;7.40;;;;;;;;;;12636375;23;20025;-67
2023/10/18 21:29:00;;;;;;;11.65;7.90;;;;;;;;;;12635341;23;20021;-67
2023/10/18 21:33:57;;;;;;;7.95;7.10;;;;;;;;;;12635082;23;20099;-66
2023/10/18 21:38:53;;;;;;;11.32;7.60;;;;;;;;;;12634970;23;20025;-65
2023/10/18 21:43:50;;;;;;;9.65;7.57;;;;;;;;;;12629913;23;20029;-65
2023/10/18 21:48:46;;;;;;;12.18;7.57;;;;;;;;;;12635981;23;20052;-66
2023/10/18 21:53:42;;;;;;;8.10;7.28;;;;;;;;;;12634931;23;20359;-65
2023/10/18 21:58:39;;;;;;;13.23;8.73;;;;;;;;;;12635571;23;20474;-65
2023/10/18 22:03:36;;;;;;;9.10;7.95;;;;;;;;;;12635350;23;20417;-65
2023/10/18 22:08:38;;;;;;;10.25;7.97;;;;;;;;;;12634479;23;20048;-66
2023/10/18 22:13:40;;;;;;;8.93;7.60;;;;;;;;;;12635368;23;20035;-67
2023/10/18 22:18:50;;;;;;;9.10;8.10;;;;;;;;;;12635655;23;20029;-66
2023/10/18 22:23:47;;;;;;;8.88;6.95;;;;;;;;;;12635176;23;20025;-67
2023/10/18 22:28:43;;;;;;;8.13;6.30;;;;;;;;;;12635451;23;20016;-67
2023/10/18 22:33:39;;;;;;;9.65;7.40;;;;;;;;;;12634456;23;20021;-67
2023/10/18 22:38:42;;;;;;;8.05;6.78;;;;;;;;;;12635383;23;20413;-67
2023/10/18 22:43:41;;;;;;;8.13;7.25;;;;;;;;;;12628958;23;20094;-67
2023/10/18 22:48:38;;;;;;;9.68;7.30;;;;;;;;;;12634690;23;20020;-67
2023/10/18 22:53:53;;;;;;;8.68;7.22;;;;;;;;;;12629035;23;20032;-68
2023/10/18 22:58:49;;;;;;;8.02;7.22;;;;;;;;;;12634544;23;20466;-68
2023/10/18 23:03:47;;;;;;;9.23;7.85;;;;;;;;;;12635471;23;20112;-67
2023/10/18 23:08:43;;;;;;;8.75;7.47;;;;;;;;;;12635057;23;20074;-67
2023/10/18 23:13:47;;;;;;;9.25;7.22;;;;;;;;;;12632384;23;20024;-67
2023/10/18 23:18:56;;;;;;;9.60;7.15;;;;;;;;;;12632590;23;20028;-66
2023/10/18 23:29:00;;;;;;;8.48;7.47;;;;;;;;;;12633665;23;20090;-68
2023/10/18 23:34:43;;;;;;;8.77;7.22;;;;;;;;;;12634053;23;20017;-68
2023/10/18 23:39:17;;;;;;;10.25;7.70;;;;;;;;;;12622768;23;20024;-67
2023/10/18 23:44:16;;;;;;;9.60;7.95;;;;;;;;;;12634773;23;20028;-67
2023/10/18 23:54:18;;;;;;;8.70;7.45;;;;;;;;;;12635868;23;20086;-68
2023/10/18 23:59:15;;;;;;;9.85;8.85;;;;;;;;;;12631620;23;20036;-68
